sensor_id;sensor_type;location;lat;lon;timestamp;P1;durP1;ratioP1;P2;durP2;ratioP2
64915;SDS011;51427;-27.442;153.014;2023-10-19T00:01:10;4.65;;;1.00;;
64915;SDS011;51427;-27.442;153.014;2023-10-19T00:03:37;4.10;;;0.98;;
64915;SDS011;51427;-27.442;153.014;2023-10-19T00:06:04;3.28;;;1.13;;
64915;SDS011;51427;-27.442;153.014;2023-10-19T00:08:32;5.13;;;1.05;;
64915;SDS011;51427;-27.442;153.014;2023-10-19T00:11:08;4.22;;;1.13;;
64915;SDS011;51427;-27.442;153.014;2023-10-19T00:13:47;4.28;;;1.20;;
64915;SDS011;51427;-27.442;153.014;2023-10-19T00:16:20;4.00;;;1.10;;
64915;SDS011;51427;-27.442;153.014;2023-10-19T00:18:49;4.25;;;0.98;;
64915;SDS011;51427;-27.442;153.014;2023-10-19T00:21:18;2.75;;;0.93;;
64915;SDS011;51427;-27.442;153.014;2023-10-19T00:23:56;5.63;;;1.00;;
64915;SDS011;51427;-27.442;153.014;2023-10-19T00:26:30;3.38;;;1.10;;
64915;SDS011;51427;-27.442;153.014;2023-10-19T00:28:57;2.50;;;0.80;;
64915;SDS011;51427;-27.442;153.014;2023-10-19T00:31:30;3.28;;;1.00;;
64915;SDS011;51427;-27.442;153.014;2023-10-19T00:34:02;4.85;;;1.02;;
64915;SDS011;51427;-27.442;153.014;2023-10-19T00:36:29;2.78;;;1.08;;
64915;SDS011;51427;-27.442;153.014;2023-10-19T00:38:57;3.65;;;1.42;;
64915;SDS011;51427;-27.442;153.014;2023-10-19T00:41:26;4.03;;;1.55;;
64915;SDS011;51427;-27.442;153.014;2023-10-19T00:43:57;5.80;;;1.20;;
64915;SDS011;51427;-27.442;153.014;2023-10-19T00:46:31;4.80;;;1.05;;
64915;SDS011;51427;-27.442;153.014;2023-10-19T00:49:03;3.55;;;1.00;;
64915;SDS011;51427;-27.442;153.014;2023-10-19T00:51:36;2.00;;;0.80;;
64915;SDS011;51427;-27.442;153.014;2023-10-19T00:54:34;8.75;;;1.67;;
64915;SDS011;51427;-27.442;153.014;2023-10-19T00:57:23;5.10;;;1.60;;
64915;SDS011;51427;-27.442;153.014;2023-10-19T01:00:01;3.75;;;1.77;;
64915;SDS011;51427;-27.442;153.014;2023-10-19T01:02:46;3.50;;;1.48;;
64915;SDS011;51427;-27.442;153.014;2023-10-19T01:05:17;3.58;;;1.48;;
64915;SDS011;51427;-27.442;153.014;2023-10-19T01:07:47;3.15;;;1.25;;
64915;SDS011;51427;-27.442;153.014;2023-10-19T01:10:22;4.47;;;1.45;;
64915;SDS011;51427;-27.442;153.014;2023-10-19T01:12:50;3.33;;;1.33;;
64915;SDS011;51427;-27.442;153.014;2023-10-19T01:15:18;3.20;;;1.40;;
64915;SDS011;51427;-27.442;153.014;2023-10-19T01:17:54;3.30;;;1.20;;
64915;SDS011;51427;-27.442;153.014;2023-10-19T01:20:23;3.13;;;1.27;;
64915;SDS011;51427;-27.442;153.014;2023-10-19T01:23:01;3.58;;;1.23;;
64915;SDS011;51427;-27.442;153.014;2023-10-19T01:25:45;4.45;;;1.50;;
64915;SDS011;51427;-27.442;153.014;2023-10-19T01:28:16;2.95;;;1.20;;
64915;SDS011;51427;-27.442;153.014;2023-10-19T01:30:44;3.03;;;1.45;;
64915;SDS011;51427;-27.442;153.014;2023-10-19T01:33:17;5.28;;;1.38;;
64915;SDS011;51427;-27.442;153.014;2023-10-19T01:35:44;4.45;;;1.20;;
64915;SDS011;51427;-27.442;153.014;2023-10-19T01:38:30;4.72;;;1.52;;
64915;SDS011;51427;-27.442;153.014;2023-10-19T01:40:57;5.47;;;1.35;;
64915;SDS011;51427;-27.442;153.014;2023-10-19T01:43:28;8.85;;;1.50;;
64915;SDS011;51427;-27.442;153.014;2023-10-19T01:45:58;4.43;;;1.42;;
64915;SDS011;51427;-27.442;153.014;2023-10-19T01:48:42;2.80;;;1.30;;
64915;SDS011;51427;-27.442;153.014;2023-10-19T01:51:10;4.38;;;1.40;;
64915;SDS011;51427;-27.442;153.014;2023-10-19T01:53:40;4.63;;;1.30;;
64915;SDS011;51427;-27.442;153.014;2023-10-19T01:56:11;3.58;;;1.58;;
64915;SDS011;51427;-27.442;153.014;2023-10-19T01:58:41;5.70;;;1.52;;
64915;SDS011;51427;-27.442;153.014;2023-10-19T02:01:09;3.35;;;1.42;;
64915;SDS011;51427;-27.442;153.014;2023-10-19T02:03:40;6.47;;;1.80;;
64915;SDS011;51427;-27.442;153.014;2023-10-19T02:06:08;5.28;;;1.63;;
64915;SDS011;51427;-27.442;153.014;2023-10-19T02:08:50;4.10;;;1.40;;
64915;SDS011;51427;-27.442;153.014;2023-10-19T02:11:24;4.55;;;1.98;;
64915;SDS011;51427;-27.442;153.014;2023-10-19T02:13:53;3.70;;;1.38;;
64915;SDS011;51427;-27.442;153.014;2023-10-19T02:16:25;4.35;;;1.45;;
64915;SDS011;51427;-27.442;153.014;2023-10-19T02:18:55;2.40;;;0.98;;
64915;SDS011;51427;-27.442;153.014;2023-10-19T02:21:22;3.85;;;0.93;;
64915;SDS011;51427;-27.442;153.014;2023-10-19T02:23:53;3.13;;;1.30;;
64915;SDS011;51427;-27.442;153.014;2023-10-19T02:26:21;3.58;;;1.10;;
64915;SDS011;51427;-27.442;153.014;2023-10-19T02:28:51;2.65;;;0.88;;
64915;SDS011;51427;-27.442;153.014;2023-10-19T02:31:19;2.40;;;1.00;;
64915;SDS011;51427;-27.442;153.014;2023-10-19T02:33:47;2.50;;;1.27;;
64915;SDS011;51427;-27.442;153.014;2023-10-19T02:36:25;2.45;;;1.52;;
64915;SDS011;51427;-27.442;153.014;2023-10-19T02:39:03;3.20;;;1.20;;
64915;SDS011;51427;-27.442;153.014;2023-10-19T02:44:03;4.78;;;1.60;;
64915;SDS011;51427;-27.442;153.014;2023-10-19T02:46:38;4.07;;;1.60;;
64915;SDS011;51427;-27.442;153.014;2023-10-19T02:49:07;4.63;;;1.50;;
64915;SDS011;51427;-27.442;153.014;2023-10-19T02:51:49;4.97;;;1.90;;
64915;SDS011;51427;-27.442;153.014;2023-10-19T02:54:18;4.43;;;1.85;;
64915;SDS011;51427;-27.442;153.014;2023-10-19T02:56:50;3.60;;;1.67;;
64915;SDS011;51427;-27.442;153.014;2023-10-19T02:59:19;4.75;;;2.00;;
64915;SDS011;51427;-27.442;153.014;2023-10-19T03:01:52;3.55;;;1.50;;
64915;SDS011;51427;-27.442;153.014;2023-10-19T03:04:49;4.38;;;1.58;;
64915;SDS011;51427;-27.442;153.014;2023-10-19T03:07:16;4.55;;;1.67;;
64915;SDS011;51427;-27.442;153.014;2023-10-19T03:09:44;5.50;;;2.33;;
64915;SDS011;51427;-27.442;153.014;2023-10-19T03:12:20;5.57;;;2.20;;
64915;SDS011;51427;-27.442;153.014;2023-10-19T03:14:52;4.68;;;1.92;;
64915;SDS011;51427;-27.442;153.014;2023-10-19T03:17:19;6.30;;;2.00;;
64915;SDS011;51427;-27.442;153.014;2023-10-19T03:19:46;4.75;;;2.00;;
64915;SDS011;51427;-27.442;153.014;2023-10-19T03:22:14;4.65;;;2.08;;
64915;SDS011;51427;-27.442;153.014;2023-10-19T03:24:42;4.45;;;2.10;;
64915;SDS011;51427;-27.442;153.014;2023-10-19T03:27:10;5.85;;;2.08;;
64915;SDS011;51427;-27.442;153.014;2023-10-19T03:29:41;6.53;;;2.45;;
64915;SDS011;51427;-27.442;153.014;2023-10-19T03:32:12;6.25;;;2.50;;
64915;SDS011;51427;-27.442;153.014;2023-10-19T03:34:40;5.85;;;2.35;;
64915;SDS011;51427;-27.442;153.014;2023-10-19T03:37:13;7.93;;;2.17;;
64915;SDS011;51427;-27.442;153.014;2023-10-19T03:39:41;6.90;;;2.90;;
64915;SDS011;51427;-27.442;153.014;2023-10-19T03:42:11;7.80;;;2.40;;
64915;SDS011;51427;-27.442;153.014;2023-10-19T03:44:41;6.28;;;2.50;;
64915;SDS011;51427;-27.442;153.014;2023-10-19T03:47:15;7.75;;;2.72;;
64915;SDS011;51427;-27.442;153.014;2023-10-19T03:49:46;6.00;;;2.33;;
64915;SDS011;51427;-27.442;153.014;2023-10-19T03:52:17;7.68;;;2.58;;
64915;SDS011;51427;-27.442;153.014;2023-10-19T03:54:44;6.55;;;2.65;;
64915;SDS011;51427;-27.442;153.014;2023-10-19T03:57:16;8.60;;;2.70;;
64915;SDS011;51427;-27.442;153.014;2023-10-19T03:59:55;5.03;;;2.28;;
64915;SDS011;51427;-27.442;153.014;2023-10-19T04:02:23;5.63;;;2.42;;
64915;SDS011;51427;-27.442;153.014;2023-10-19T04:04:52;4.68;;;2.03;;
64915;SDS011;51427;-27.442;153.014;2023-10-19T04:07:21;7.78;;;2.25;;
64915;SDS011;51427;-27.442;153.014;2023-10-19T04:09:52;7.18;;;2.50;;
64915;SDS011;51427;-27.442;153.014;2023-10-19T04:12:24;4.63;;;1.90;;
64915;SDS011;51427;-27.442;153.014;2023-10-19T04:14:54;6.18;;;2.22;;
64915;SDS011;51427;-27.442;153.014;2023-10-19T04:17:37;5.20;;;1.83;;
64915;SDS011;51427;-27.442;153.014;2023-10-19T04:20:24;7.20;;;1.80;;
64915;SDS011;51427;-27.442;153.014;2023-10-19T04:22:51;4.47;;;2.08;;
64915;SDS011;51427;-27.442;153.014;2023-10-19T04:25:19;6.88;;;2.00;;
64915;SDS011;51427;-27.442;153.014;2023-10-19T04:27:51;4.18;;;2.13;;
64915;SDS011;51427;-27.442;153.014;2023-10-19T04:30:18;5.80;;;1.85;;
64915;SDS011;51427;-27.442;153.014;2023-10-19T04:32:49;6.90;;;1.52;;
64915;SDS011;51427;-27.442;153.014;2023-10-19T04:35:16;5.30;;;1.65;;
64915;SDS011;51427;-27.442;153.014;2023-10-19T04:37:48;8.48;;;1.85;;
64915;SDS011;51427;-27.442;153.014;2023-10-19T04:40:17;4.78;;;2.10;;
64915;SDS011;51427;-27.442;153.014;2023-10-19T04:42:45;4.63;;;1.67;;
64915;SDS011;51427;-27.442;153.014;2023-10-19T04:45:13;6.80;;;1.55;;
64915;SDS011;51427;-27.442;153.014;2023-10-19T04:47:40;5.50;;;1.30;;
64915;SDS011;51427;-27.442;153.014;2023-10-19T04:50:08;3.95;;;1.48;;
64915;SDS011;51427;-27.442;153.014;2023-10-19T04:52:38;6.88;;;1.45;;
64915;SDS011;51427;-27.442;153.014;2023-10-19T04:55:06;5.20;;;1.45;;
64915;SDS011;51427;-27.442;153.014;2023-10-19T04:57:33;5.57;;;1.42;;
64915;SDS011;51427;-27.442;153.014;2023-10-19T05:00:01;6.05;;;1.25;;
64915;SDS011;51427;-27.442;153.014;2023-10-19T05:02:29;3.15;;;1.20;;
64915;SDS011;51427;-27.442;153.014;2023-10-19T05:04:56;6.60;;;1.77;;
64915;SDS011;51427;-27.442;153.014;2023-10-19T05:07:23;4.43;;;1.02;;
64915;SDS011;51427;-27.442;153.014;2023-10-19T05:09:52;7.50;;;1.40;;
64915;SDS011;51427;-27.442;153.014;2023-10-19T05:12:19;4.70;;;0.90;;
64915;SDS011;51427;-27.442;153.014;2023-10-19T05:14:47;5.82;;;1.02;;
64915;SDS011;51427;-27.442;153.014;2023-10-19T05:17:14;2.88;;;0.93;;
64915;SDS011;51427;-27.442;153.014;2023-10-19T05:19:41;4.78;;;1.15;;
64915;SDS011;51427;-27.442;153.014;2023-10-19T05:22:09;3.53;;;0.93;;
64915;SDS011;51427;-27.442;153.014;2023-10-19T05:24:36;3.25;;;1.25;;
64915;SDS011;51427;-27.442;153.014;2023-10-19T05:27:03;4.57;;;1.20;;
64915;SDS011;51427;-27.442;153.014;2023-10-19T05:29:31;2.42;;;1.08;;
64915;SDS011;51427;-27.442;153.014;2023-10-19T05:31:59;2.80;;;0.98;;
64915;SDS011;51427;-27.442;153.014;2023-10-19T05:34:27;2.33;;;0.95;;
64915;SDS011;51427;-27.442;153.014;2023-10-19T05:37:02;4.63;;;1.05;;
64915;SDS011;51427;-27.442;153.014;2023-10-19T05:39:31;4.90;;;1.05;;
64915;SDS011;51427;-27.442;153.014;2023-10-19T05:41:59;2.95;;;1.30;;
64915;SDS011;51427;-27.442;153.014;2023-10-19T05:44:29;2.00;;;1.00;;
64915;SDS011;51427;-27.442;153.014;2023-10-19T05:46:56;8.60;;;1.50;;
64915;SDS011;51427;-27.442;153.014;2023-10-19T05:49:24;4.25;;;1.27;;
64915;SDS011;51427;-27.442;153.014;2023-10-19T05:51:51;6.32;;;1.48;;
64915;SDS011;51427;-27.442;153.014;2023-10-19T05:54:18;4.35;;;1.13;;
64915;SDS011;51427;-27.442;153.014;2023-10-19T05:56:49;3.22;;;1.00;;
64915;SDS011;51427;-27.442;153.014;2023-10-19T05:59:17;5.57;;;1.30;;
64915;SDS011;51427;-27.442;153.014;2023-10-19T06:01:44;2.60;;;0.90;;
64915;SDS011;51427;-27.442;153.014;2023-10-19T06:04:12;4.35;;;1.20;;
64915;SDS011;51427;-27.442;153.014;2023-10-19T06:06:40;4.35;;;1.08;;
64915;SDS011;51427;-27.442;153.014;2023-10-19T06:09:07;6.30;;;1.33;;
64915;SDS011;51427;-27.442;153.014;2023-10-19T06:11:35;4.88;;;1.17;;
64915;SDS011;51427;-27.442;153.014;2023-10-19T06:14:08;9.60;;;1.50;;
64915;SDS011;51427;-27.442;153.014;2023-10-19T06:16:35;2.50;;;1.02;;
64915;SDS011;51427;-27.442;153.014;2023-10-19T06:19:03;3.42;;;1.35;;
64915;SDS011;51427;-27.442;153.014;2023-10-19T06:21:30;6.05;;;1.63;;
64915;SDS011;51427;-27.442;153.014;2023-10-19T06:23:59;6.45;;;1.60;;
64915;SDS011;51427;-27.442;153.014;2023-10-19T06:26:26;3.53;;;1.45;;
64915;SDS011;51427;-27.442;153.014;2023-10-19T06:28:54;4.05;;;1.58;;
64915;SDS011;51427;-27.442;153.014;2023-10-19T06:31:29;5.40;;;1.85;;
64915;SDS011;51427;-27.442;153.014;2023-10-19T06:33:56;6.05;;;1.73;;
64915;SDS011;51427;-27.442;153.014;2023-10-19T06:36:24;5.88;;;1.45;;
64915;SDS011;51427;-27.442;153.014;2023-10-19T06:38:52;4.05;;;1.85;;
64915;SDS011;51427;-27.442;153.014;2023-10-19T06:41:20;6.30;;;1.70;;
64915;SDS011;51427;-27.442;153.014;2023-10-19T06:43:47;2.65;;;1.50;;
64915;SDS011;51427;-27.442;153.014;2023-10-19T06:46:14;3.80;;;1.42;;
64915;SDS011;51427;-27.442;153.014;2023-10-19T06:48:42;5.20;;;1.58;;
64915;SDS011;51427;-27.442;153.014;2023-10-19T06:51:09;2.97;;;1.40;;
64915;SDS011;51427;-27.442;153.014;2023-10-19T06:53:37;7.60;;;1.48;;
64915;SDS011;51427;-27.442;153.014;2023-10-19T06:56:04;3.53;;;1.25;;
64915;SDS011;51427;-27.442;153.014;2023-10-19T06:58:32;5.78;;;1.38;;
64915;SDS011;51427;-27.442;153.014;2023-10-19T07:00:59;5.60;;;1.60;;
64915;SDS011;51427;-27.442;153.014;2023-10-19T07:03:31;4.88;;;1.25;;
64915;SDS011;51427;-27.442;153.014;2023-10-19T07:05:58;4.63;;;1.40;;
64915;SDS011;51427;-27.442;153.014;2023-10-19T07:08:28;6.20;;;1.40;;
64915;SDS011;51427;-27.442;153.014;2023-10-19T07:10:55;6.78;;;1.55;;
64915;SDS011;51427;-27.442;153.014;2023-10-19T07:13:22;6.15;;;1.70;;
64915;SDS011;51427;-27.442;153.014;2023-10-19T07:15:50;3.38;;;1.50;;
64915;SDS011;51427;-27.442;153.014;2023-10-19T07:18:17;4.32;;;1.65;;
64915;SDS011;51427;-27.442;153.014;2023-10-19T07:20:44;3.13;;;1.25;;
64915;SDS011;51427;-27.442;153.014;2023-10-19T07:23:14;2.60;;;1.10;;
64915;SDS011;51427;-27.442;153.014;2023-10-19T07:25:45;3.30;;;1.20;;
64915;SDS011;51427;-27.442;153.014;2023-10-19T07:28:14;3.97;;;1.20;;
64915;SDS011;51427;-27.442;153.014;2023-10-19T07:30:43;5.35;;;1.55;;
64915;SDS011;51427;-27.442;153.014;2023-10-19T07:33:12;4.10;;;1.60;;
64915;SDS011;51427;-27.442;153.014;2023-10-19T07:35:46;4.38;;;1.55;;
64915;SDS011;51427;-27.442;153.014;2023-10-19T07:38:18;4.32;;;1.30;;
64915;SDS011;51427;-27.442;153.014;2023-10-19T07:40:48;6.22;;;1.42;;
64915;SDS011;51427;-27.442;153.014;2023-10-19T07:43:18;5.50;;;1.88;;
64915;SDS011;51427;-27.442;153.014;2023-10-19T07:45:47;3.55;;;1.30;;
64915;SDS011;51427;-27.442;153.014;2023-10-19T07:48:14;8.10;;;1.90;;
64915;SDS011;51427;-27.442;153.014;2023-10-19T07:50:42;4.22;;;1.77;;
64915;SDS011;51427;-27.442;153.014;2023-10-19T07:53:10;5.22;;;1.88;;
64915;SDS011;51427;-27.442;153.014;2023-10-19T07:55:37;6.00;;;2.00;;
64915;SDS011;51427;-27.442;153.014;2023-10-19T07:58:05;7.57;;;1.83;;
64915;SDS011;51427;-27.442;153.014;2023-10-19T08:00:32;2.65;;;1.20;;
64915;SDS011;51427;-27.442;153.014;2023-10-19T08:03:00;5.35;;;1.85;;
64915;SDS011;51427;-27.442;153.014;2023-10-19T08:05:29;3.83;;;1.55;;
64915;SDS011;51427;-27.442;153.014;2023-10-19T08:07:56;3.40;;;1.48;;
64915;SDS011;51427;-27.442;153.014;2023-10-19T08:10:25;4.55;;;1.45;;
64915;SDS011;51427;-27.442;153.014;2023-10-19T08:12:53;5.75;;;1.67;;
64915;SDS011;51427;-27.442;153.014;2023-10-19T08:15:21;8.45;;;1.52;;
64915;SDS011;51427;-27.442;153.014;2023-10-19T08:17:49;5.85;;;1.42;;
64915;SDS011;51427;-27.442;153.014;2023-10-19T08:20:19;4.35;;;1.50;;
64915;SDS011;51427;-27.442;153.014;2023-10-19T08:22:50;3.45;;;1.10;;
64915;SDS011;51427;-27.442;153.014;2023-10-19T08:25:18;3.03;;;1.17;;
64915;SDS011;51427;-27.442;153.014;2023-10-19T08:27:46;4.60;;;1.17;;
64915;SDS011;51427;-27.442;153.014;2023-10-19T08:30:20;5.28;;;1.50;;
64915;SDS011;51427;-27.442;153.014;2023-10-19T08:32:48;4.72;;;1.33;;
64915;SDS011;51427;-27.442;153.014;2023-10-19T08:35:17;4.65;;;1.00;;
64915;SDS011;51427;-27.442;153.014;2023-10-19T08:37:50;6.30;;;1.13;;
64915;SDS011;51427;-27.442;153.014;2023-10-19T08:40:24;2.60;;;1.45;;
64915;SDS011;51427;-27.442;153.014;2023-10-19T08:42:56;6.07;;;1.48;;
64915;SDS011;51427;-27.442;153.014;2023-10-19T08:45:24;5.80;;;1.23;;
64915;SDS011;51427;-27.442;153.014;2023-10-19T08:47:56;5.18;;;1.00;;
64915;SDS011;51427;-27.442;153.014;2023-10-19T08:50:28;4.95;;;1.05;;
64915;SDS011;51427;-27.442;153.014;2023-10-19T08:52:57;3.63;;;0.80;;
64915;SDS011;51427;-27.442;153.014;2023-10-19T08:55:27;3.60;;;1.20;;
64915;SDS011;51427;-27.442;153.014;2023-10-19T08:57:56;7.50;;;1.10;;
64915;SDS011;51427;-27.442;153.014;2023-10-19T09:00:26;4.20;;;1.25;;
64915;SDS011;51427;-27.442;153.014;2023-10-19T09:03:00;3.53;;;1.17;;
64915;SDS011;51427;-27.442;153.014;2023-10-19T09:05:30;6.03;;;1.27;;
64915;SDS011;51427;-27.442;153.014;2023-10-19T09:07:57;5.13;;;1.27;;
64915;SDS011;51427;-27.442;153.014;2023-10-19T09:10:26;2.92;;;1.02;;
64915;SDS011;51427;-27.442;153.014;2023-10-19T09:13:06;4.50;;;1.55;;
64915;SDS011;51427;-27.442;153.014;2023-10-19T09:15:35;7.00;;;1.20;;
64915;SDS011;51427;-27.442;153.014;2023-10-19T09:20:48;6.15;;;1.52;;
64915;SDS011;51427;-27.442;153.014;2023-10-19T09:23:22;6.40;;;1.23;;
64915;SDS011;51427;-27.442;153.014;2023-10-19T09:25:50;5.00;;;1.35;;
64915;SDS011;51427;-27.442;153.014;2023-10-19T09:28:19;7.75;;;1.75;;
64915;SDS011;51427;-27.442;153.014;2023-10-19T09:30:47;5.32;;;1.27;;
64915;SDS011;51427;-27.442;153.014;2023-10-19T09:33:16;7.05;;;1.10;;
64915;SDS011;51427;-27.442;153.014;2023-10-19T09:35:47;8.57;;;1.63;;
64915;SDS011;51427;-27.442;153.014;2023-10-19T09:38:16;4.35;;;1.50;;
64915;SDS011;51427;-27.442;153.014;2023-10-19T09:40:52;6.38;;;1.65;;
64915;SDS011;51427;-27.442;153.014;2023-10-19T09:43:22;5.22;;;1.05;;
64915;SDS011;51427;-27.442;153.014;2023-10-19T09:46:03;5.82;;;1.15;;
64915;SDS011;51427;-27.442;153.014;2023-10-19T09:48:37;6.50;;;1.30;;
64915;SDS011;51427;-27.442;153.014;2023-10-19T09:51:09;4.40;;;1.90;;
64915;SDS011;51427;-27.442;153.014;2023-10-19T09:53:38;3.03;;;1.08;;
64915;SDS011;51427;-27.442;153.014;2023-10-19T09:56:06;7.35;;;1.85;;
64915;SDS011;51427;-27.442;153.014;2023-10-19T09:58:49;6.40;;;1.40;;
64915;SDS011;51427;-27.442;153.014;2023-10-19T10:01:20;8.73;;;1.58;;
64915;SDS011;51427;-27.442;153.014;2023-10-19T10:03:54;5.90;;;1.25;;
64915;SDS011;51427;-27.442;153.014;2023-10-19T10:07:05;5.18;;;1.10;;
64915;SDS011;51427;-27.442;153.014;2023-10-19T10:09:21;9.38;;;2.28;;
64915;SDS011;51427;-27.442;153.014;2023-10-19T10:11:52;5.65;;;1.45;;
64915;SDS011;51427;-27.442;153.014;2023-10-19T10:14:23;5.75;;;1.50;;
64915;SDS011;51427;-27.442;153.014;2023-10-19T10:17:01;6.30;;;1.60;;
64915;SDS011;51427;-27.442;153.014;2023-10-19T10:19:29;4.20;;;1.55;;
64915;SDS011;51427;-27.442;153.014;2023-10-19T10:22:10;3.17;;;1.58;;
64915;SDS011;51427;-27.442;153.014;2023-10-19T10:24:41;5.78;;;1.40;;
64915;SDS011;51427;-27.442;153.014;2023-10-19T10:27:09;5.80;;;1.33;;
64915;SDS011;51427;-27.442;153.014;2023-10-19T10:29:55;6.65;;;1.35;;
64915;SDS011;51427;-27.442;153.014;2023-10-19T10:32:47;8.40;;;1.65;;
64915;SDS011;51427;-27.442;153.014;2023-10-19T10:38:08;4.75;;;1.30;;
64915;SDS011;51427;-27.442;153.014;2023-10-19T10:40:47;5.80;;;1.98;;
64915;SDS011;51427;-27.442;153.014;2023-10-19T10:43:17;6.78;;;1.42;;
64915;SDS011;51427;-27.442;153.014;2023-10-19T10:45:47;5.50;;;1.45;;
64915;SDS011;51427;-27.442;153.014;2023-10-19T10:48:18;8.63;;;1.63;;
64915;SDS011;51427;-27.442;153.014;2023-10-19T10:50:46;5.65;;;1.70;;
64915;SDS011;51427;-27.442;153.014;2023-10-19T10:53:13;5.85;;;1.25;;
64915;SDS011;51427;-27.442;153.014;2023-10-19T10:55:41;5.72;;;1.50;;
64915;SDS011;51427;-27.442;153.014;2023-10-19T10:58:09;6.78;;;1.80;;
64915;SDS011;51427;-27.442;153.014;2023-10-19T11:00:44;7.68;;;1.70;;
64915;SDS011;51427;-27.442;153.014;2023-10-19T11:03:17;4.88;;;1.38;;
64915;SDS011;51427;-27.442;153.014;2023-10-19T11:05:45;7.57;;;1.48;;
64915;SDS011;51427;-27.442;153.014;2023-10-19T11:08:13;4.25;;;1.60;;
64915;SDS011;51427;-27.442;153.014;2023-10-19T11:10:47;5.82;;;1.52;;
64915;SDS011;51427;-27.442;153.014;2023-10-19T11:13:16;5.95;;;1.85;;
64915;SDS011;51427;-27.442;153.014;2023-10-19T11:15:51;7.32;;;1.50;;
64915;SDS011;51427;-27.442;153.014;2023-10-19T11:18:32;5.28;;;1.33;;
64915;SDS011;51427;-27.442;153.014;2023-10-19T11:21:11;9.32;;;1.67;;
64915;SDS011;51427;-27.442;153.014;2023-10-19T11:23:45;5.28;;;1.25;;
64915;SDS011;51427;-27.442;153.014;2023-10-19T11:26:15;8.02;;;1.75;;
64915;SDS011;51427;-27.442;153.014;2023-10-19T11:28:46;5.70;;;2.25;;
64915;SDS011;51427;-27.442;153.014;2023-10-19T11:31:23;8.82;;;1.35;;
64915;SDS011;51427;-27.442;153.014;2023-10-19T11:33:51;8.75;;;1.67;;
64915;SDS011;51427;-27.442;153.014;2023-10-19T11:36:21;5.07;;;1.60;;
64915;SDS011;51427;-27.442;153.014;2023-10-19T11:38:50;9.48;;;1.73;;
64915;SDS011;51427;-27.442;153.014;2023-10-19T11:41:18;7.47;;;1.60;;
64915;SDS011;51427;-27.442;153.014;2023-10-19T11:43:46;6.47;;;1.48;;
64915;SDS011;51427;-27.442;153.014;2023-10-19T11:46:15;6.32;;;1.80;;
64915;SDS011;51427;-27.442;153.014;2023-10-19T11:48:50;7.40;;;1.52;;
64915;SDS011;51427;-27.442;153.014;2023-10-19T11:51:18;6.22;;;1.45;;
64915;SDS011;51427;-27.442;153.014;2023-10-19T11:53:45;5.38;;;1.10;;
64915;SDS011;51427;-27.442;153.014;2023-10-19T11:56:12;4.03;;;1.40;;
64915;SDS011;51427;-27.442;153.014;2023-10-19T11:58:41;6.63;;;1.95;;
64915;SDS011;51427;-27.442;153.014;2023-10-19T12:01:12;7.38;;;2.08;;
64915;SDS011;51427;-27.442;153.014;2023-10-19T12:03:42;5.00;;;1.73;;
64915;SDS011;51427;-27.442;153.014;2023-10-19T12:06:11;6.93;;;1.70;;
64915;SDS011;51427;-27.442;153.014;2023-10-19T12:08:44;5.70;;;1.70;;
64915;SDS011;51427;-27.442;153.014;2023-10-19T12:11:12;5.80;;;1.90;;
64915;SDS011;51427;-27.442;153.014;2023-10-19T12:13:44;6.10;;;2.00;;
64915;SDS011;51427;-27.442;153.014;2023-10-19T12:16:12;5.18;;;2.08;;
64915;SDS011;51427;-27.442;153.014;2023-10-19T12:18:43;7.00;;;2.53;;
64915;SDS011;51427;-27.442;153.014;2023-10-19T12:21:11;6.88;;;2.60;;
64915;SDS011;51427;-27.442;153.014;2023-10-19T12:23:43;7.90;;;3.22;;
64915;SDS011;51427;-27.442;153.014;2023-10-19T12:26:16;13.15;;;2.95;;
64915;SDS011;51427;-27.442;153.014;2023-10-19T12:28:45;7.28;;;3.03;;
64915;SDS011;51427;-27.442;153.014;2023-10-19T12:31:13;10.02;;;3.08;;
64915;SDS011;51427;-27.442;153.014;2023-10-19T12:33:40;14.75;;;3.53;;
64915;SDS011;51427;-27.442;153.014;2023-10-19T12:36:08;12.55;;;4.30;;
64915;SDS011;51427;-27.442;153.014;2023-10-19T12:39:04;15.30;;;3.80;;
64915;SDS011;51427;-27.442;153.014;2023-10-19T12:41:32;18.23;;;5.75;;
64915;SDS011;51427;-27.442;153.014;2023-10-19T12:44:00;14.00;;;4.97;;
64915;SDS011;51427;-27.442;153.014;2023-10-19T12:46:33;9.57;;;4.63;;
64915;SDS011;51427;-27.442;153.014;2023-10-19T12:49:04;11.02;;;4.85;;
64915;SDS011;51427;-27.442;153.014;2023-10-19T12:51:39;17.23;;;5.40;;
64915;SDS011;51427;-27.442;153.014;2023-10-19T12:54:07;14.10;;;5.10;;
64915;SDS011;51427;-27.442;153.014;2023-10-19T12:56:36;12.90;;;5.55;;
64915;SDS011;51427;-27.442;153.014;2023-10-19T12:59:04;8.95;;;4.95;;
64915;SDS011;51427;-27.442;153.014;2023-10-19T13:01:33;10.48;;;4.97;;
64915;SDS011;51427;-27.442;153.014;2023-10-19T13:04:01;12.00;;;4.95;;
64915;SDS011;51427;-27.442;153.014;2023-10-19T13:06:39;9.82;;;5.45;;
64915;SDS011;51427;-27.442;153.014;2023-10-19T13:09:06;10.75;;;5.70;;
64915;SDS011;51427;-27.442;153.014;2023-10-19T13:11:34;11.80;;;5.90;;
64915;SDS011;51427;-27.442;153.014;2023-10-19T13:14:04;13.15;;;4.70;;
64915;SDS011;51427;-27.442;153.014;2023-10-19T13:16:32;9.05;;;4.90;;
64915;SDS011;51427;-27.442;153.014;2023-10-19T13:18:59;10.02;;;4.78;;
64915;SDS011;51427;-27.442;153.014;2023-10-19T13:21:34;11.63;;;5.18;;
64915;SDS011;51427;-27.442;153.014;2023-10-19T13:24:03;11.02;;;4.85;;
64915;SDS011;51427;-27.442;153.014;2023-10-19T13:26:31;10.88;;;4.90;;
64915;SDS011;51427;-27.442;153.014;2023-10-19T13:28:59;9.57;;;5.00;;
64915;SDS011;51427;-27.442;153.014;2023-10-19T13:31:27;8.60;;;4.45;;
64915;SDS011;51427;-27.442;153.014;2023-10-19T13:33:55;9.90;;;4.25;;
64915;SDS011;51427;-27.442;153.014;2023-10-19T13:36:22;9.48;;;4.53;;
64915;SDS011;51427;-27.442;153.014;2023-10-19T13:38:49;11.30;;;5.20;;
64915;SDS011;51427;-27.442;153.014;2023-10-19T13:41:17;11.18;;;4.57;;
64915;SDS011;51427;-27.442;153.014;2023-10-19T13:43:44;7.88;;;4.38;;
64915;SDS011;51427;-27.442;153.014;2023-10-19T13:46:12;8.18;;;4.38;;
64915;SDS011;51427;-27.442;153.014;2023-10-19T13:48:40;8.27;;;4.10;;
64915;SDS011;51427;-27.442;153.014;2023-10-19T13:51:07;9.65;;;4.65;;
64915;SDS011;51427;-27.442;153.014;2023-10-19T13:53:41;13.07;;;4.78;;
64915;SDS011;51427;-27.442;153.014;2023-10-19T13:56:10;9.00;;;4.00;;
64915;SDS011;51427;-27.442;153.014;2023-10-19T13:58:40;10.55;;;4.47;;
64915;SDS011;51427;-27.442;153.014;2023-10-19T14:01:08;8.95;;;3.78;;
64915;SDS011;51427;-27.442;153.014;2023-10-19T14:03:38;7.20;;;3.30;;
64915;SDS011;51427;-27.442;153.014;2023-10-19T14:06:05;8.95;;;3.72;;
64915;SDS011;51427;-27.442;153.014;2023-10-19T14:08:38;5.82;;;2.78;;
64915;SDS011;51427;-27.442;153.014;2023-10-19T14:11:05;9.50;;;3.50;;
64915;SDS011;51427;-27.442;153.014;2023-10-19T14:13:33;5.03;;;3.03;;
64915;SDS011;51427;-27.442;153.014;2023-10-19T14:16:10;7.05;;;3.50;;
64915;SDS011;51427;-27.442;153.014;2023-10-19T14:18:37;8.23;;;3.60;;
64915;SDS011;51427;-27.442;153.014;2023-10-19T14:21:14;7.53;;;3.50;;
64915;SDS011;51427;-27.442;153.014;2023-10-19T14:23:44;8.65;;;3.50;;
64915;SDS011;51427;-27.442;153.014;2023-10-19T14:26:13;8.45;;;3.50;;
64915;SDS011;51427;-27.442;153.014;2023-10-19T14:28:40;7.32;;;4.00;;
64915;SDS011;51427;-27.442;153.014;2023-10-19T14:31:08;8.23;;;4.20;;
64915;SDS011;51427;-27.442;153.014;2023-10-19T14:33:36;7.93;;;3.75;;
64915;SDS011;51427;-27.442;153.014;2023-10-19T14:36:04;8.45;;;3.70;;